UAL404 KIAH-KEWR
Flight info
| Callsign | UAL404 |
|---|---|
| Flight time | N/A |
| Altitude | 37000 |
| Route | LURIC8 HAWES SUTTN J29 CARIN MEMFS Q29 DORET J584 SLT FQM3 |
| Aircraft | B38M/M-SDE1FGHILORVWXY/HB1 |
Departure
| Time | N/A |
|---|---|
| Airport | George Bush Intercontinental Airport (KIAH) |
Arrival
| Time | 2026-04-20 02:39 |
|---|---|
| Airport | Newark Liberty International Airport (KEWR) |
| Time | Latitude | Longitude | Altitude | Speed | Heading |
|---|---|---|---|---|---|
| 2026-04-20 02:13 | 41.46098 | -77.60744 | 37115 ft | 533 kts | 105° |
| 2026-04-20 02:14 | 41.43920 | -77.45674 | 37117 ft | 534 kts | 105° |
| 2026-04-20 02:14 | 41.41104 | -77.26229 | 37118 ft | 534 kts | 105° |
| 2026-04-20 02:15 | 41.38267 | -77.06913 | 37112 ft | 535 kts | 107° |
| 2026-04-20 02:15 | 41.35333 | -76.87465 | 37124 ft | 535 kts | 107° |
| 2026-04-20 02:16 | 41.31989 | -76.70959 | 37105 ft | 520 kts | 119° |
| 2026-04-20 02:16 | 41.29620 | -76.61736 | 37137 ft | 527 kts | 116° |
| 2026-04-20 02:17 | 41.27207 | -76.52607 | 37099 ft | 525 kts | 116° |
| 2026-04-20 02:17 | 41.24751 | -76.43477 | 37106 ft | 524 kts | 117° |
| 2026-04-20 02:18 | 41.22301 | -76.34404 | 36631 ft | 517 kts | 117° |
| 2026-04-20 02:18 | 41.21077 | -76.29890 | 35609 ft | 525 kts | 117° |
| 2026-04-20 02:18 | 41.19824 | -76.25275 | 34467 ft | 537 kts | 117° |
| 2026-04-20 02:19 | 41.18543 | -76.20562 | 33409 ft | 544 kts | 118° |
| 2026-04-20 02:19 | 41.17261 | -76.15850 | 32793 ft | 538 kts | 118° |
| 2026-04-20 02:19 | 41.15987 | -76.11180 | 31847 ft | 539 kts | 119° |
| 2026-04-20 02:19 | 41.14730 | -76.06579 | 31218 ft | 534 kts | 120° |
| 2026-04-20 02:20 | 41.13446 | -76.01902 | 30002 ft | 541 kts | 121° |
| 2026-04-20 02:20 | 41.12168 | -75.97238 | 29208 ft | 535 kts | 122° |
| 2026-04-20 02:20 | 41.10895 | -75.92610 | 27775 ft | 539 kts | 121° |
| 2026-04-20 02:20 | 41.09601 | -75.87914 | 26805 ft | 538 kts | 121° |
| 2026-04-20 02:21 | 41.07038 | -75.78636 | 24760 ft | 536 kts | 120° |
| 2026-04-20 02:21 | 41.05759 | -75.74015 | 24000 ft | 530 kts | 121° |
| 2026-04-20 02:21 | 41.04511 | -75.69520 | 23311 ft | 523 kts | 121° |
| 2026-04-20 02:22 | 41.03263 | -75.65027 | 22589 ft | 516 kts | 120° |
| 2026-04-20 02:22 | 41.02031 | -75.60600 | 21912 ft | 509 kts | 119° |
| 2026-04-20 02:22 | 41.00811 | -75.56224 | 21270 ft | 502 kts | 118° |
| 2026-04-20 02:22 | 40.99612 | -75.51932 | 20648 ft | 491 kts | 118° |
| 2026-04-20 02:23 | 40.98433 | -75.47723 | 19646 ft | 488 kts | 117° |
| 2026-04-20 02:23 | 40.97263 | -75.43545 | 18967 ft | 477 kts | 116° |
| 2026-04-20 02:23 | 40.96133 | -75.39515 | 17861 ft | 469 kts | 116° |
| 2026-04-20 02:23 | 40.95002 | -75.35494 | 16640 ft | 463 kts | 115° |
| 2026-04-20 02:24 | 40.93888 | -75.31535 | 15551 ft | 456 kts | 114° |
| 2026-04-20 02:24 | 40.92787 | -75.27632 | 14530 ft | 448 kts | 113° |
| 2026-04-20 02:24 | 40.91705 | -75.23800 | 13515 ft | 441 kts | 112° |
| 2026-04-20 02:24 | 40.90639 | -75.20036 | 12471 ft | 433 kts | 112° |
| 2026-04-20 02:25 | 40.89585 | -75.16310 | 11556 ft | 431 kts | 112° |
| 2026-04-20 02:25 | 40.88548 | -75.12656 | 11071 ft | 425 kts | 111° |
| 2026-04-20 02:25 | 40.87520 | -75.09011 | 10655 ft | 418 kts | 111° |
| 2026-04-20 02:25 | 40.86516 | -75.05455 | 10347 ft | 408 kts | 111° |
| 2026-04-20 02:26 | 40.85533 | -75.01977 | 10078 ft | 399 kts | 111° |
| 2026-04-20 02:26 | 40.84573 | -74.98586 | 9847 ft | 389 kts | 111° |
| 2026-04-20 02:26 | 40.83639 | -74.95291 | 9596 ft | 379 kts | 111° |
| 2026-04-20 02:26 | 40.82727 | -74.92070 | 9385 ft | 369 kts | 110° |
| 2026-04-20 02:27 | 40.81881 | -74.88994 | 9175 ft | 350 kts | 110° |
| 2026-04-20 02:27 | 40.80997 | -74.86132 | 9139 ft | 325 kts | 123° |
| 2026-04-20 02:27 | 40.79609 | -74.83884 | 9121 ft | 308 kts | 137° |
| 2026-04-20 02:27 | 40.78125 | -74.81864 | 8853 ft | 306 kts | 138° |
| 2026-04-20 02:28 | 40.76638 | -74.79863 | 8409 ft | 303 kts | 138° |
| 2026-04-20 02:28 | 40.75164 | -74.77890 | 8065 ft | 301 kts | 138° |
| 2026-04-20 02:28 | 40.73690 | -74.75935 | 7740 ft | 300 kts | 138° |
| 2026-04-20 02:28 | 40.72220 | -74.73994 | 7431 ft | 298 kts | 138° |
| 2026-04-20 02:29 | 40.70772 | -74.72092 | 7123 ft | 297 kts | 137° |
| 2026-04-20 02:29 | 40.69302 | -74.70182 | 6811 ft | 295 kts | 137° |
| 2026-04-20 02:29 | 40.67844 | -74.68292 | 6511 ft | 294 kts | 137° |
| 2026-04-20 02:29 | 40.66379 | -74.66402 | 6189 ft | 292 kts | 137° |
| 2026-04-20 02:30 | 40.64941 | -74.64554 | 5871 ft | 291 kts | 137° |
| 2026-04-20 02:30 | 40.63960 | -74.63296 | 5646 ft | 290 kts | 137° |
| 2026-04-20 02:30 | 40.62530 | -74.61461 | 5338 ft | 286 kts | 137° |
| 2026-04-20 02:30 | 40.61124 | -74.59664 | 5035 ft | 284 kts | 137° |
| 2026-04-20 02:31 | 40.59726 | -74.57883 | 4706 ft | 275 kts | 137° |
| 2026-04-20 02:31 | 40.58363 | -74.56151 | 4385 ft | 271 kts | 137° |
| 2026-04-20 02:31 | 40.57155 | -74.54253 | 4108 ft | 271 kts | 123° |
| 2026-04-20 02:31 | 40.56203 | -74.52124 | 3931 ft | 269 kts | 120° |
| 2026-04-20 02:32 | 40.55285 | -74.49991 | 3777 ft | 267 kts | 120° |
| 2026-04-20 02:32 | 40.54367 | -74.47865 | 3624 ft | 266 kts | 120° |
| 2026-04-20 02:32 | 40.53453 | -74.45752 | 3478 ft | 265 kts | 120° |
| 2026-04-20 02:32 | 40.52541 | -74.43647 | 3327 ft | 264 kts | 120° |
| 2026-04-20 02:33 | 40.51644 | -74.41537 | 3172 ft | 263 kts | 114° |
| 2026-04-20 02:33 | 40.51177 | -74.39238 | 3011 ft | 260 kts | 96° |
| 2026-04-20 02:33 | 40.50963 | -74.36877 | 2867 ft | 259 kts | 95° |
| 2026-04-20 02:33 | 40.50765 | -74.34532 | 2805 ft | 258 kts | 95° |
| 2026-04-20 02:34 | 40.50558 | -74.32221 | 2786 ft | 251 kts | 94° |
| 2026-04-20 02:34 | 40.50678 | -74.30026 | 2778 ft | 241 kts | 68° |
| 2026-04-20 02:34 | 40.51516 | -74.28191 | 2819 ft | 229 kts | 42° |
| 2026-04-20 02:34 | 40.52733 | -74.26999 | 2819 ft | 209 kts | 25° |
| 2026-04-20 02:35 | 40.53981 | -74.26166 | 2810 ft | 194 kts | 22° |
| 2026-04-20 02:35 | 40.55170 | -74.25411 | 2813 ft | 184 kts | 21° |
| 2026-04-20 02:35 | 40.56277 | -74.24712 | 2616 ft | 170 kts | 21° |
| 2026-04-20 02:35 | 40.57279 | -74.24077 | 2436 ft | 154 kts | 21° |
| 2026-04-20 02:36 | 40.58218 | -74.23483 | 2252 ft | 147 kts | 21° |
| 2026-04-20 02:36 | 40.59125 | -74.22907 | 2049 ft | 144 kts | 21° |
| 2026-04-20 02:36 | 40.60026 | -74.22335 | 1843 ft | 143 kts | 21° |
| 2026-04-20 02:36 | 40.60925 | -74.21765 | 1646 ft | 143 kts | 21° |
| 2026-04-20 02:37 | 40.61824 | -74.21194 | 1449 ft | 143 kts | 21° |
| 2026-04-20 02:37 | 40.62726 | -74.20621 | 1246 ft | 144 kts | 21° |
| 2026-04-20 02:37 | 40.63626 | -74.20048 | 1052 ft | 144 kts | 22° |
| 2026-04-20 02:37 | 40.64525 | -74.19472 | 831 ft | 144 kts | 23° |
| 2026-04-20 02:38 | 40.65419 | -74.18908 | 615 ft | 144 kts | 24° |
| 2026-04-20 02:38 | 40.66320 | -74.18333 | 425 ft | 142 kts | 22° |
| 2026-04-20 02:38 | 40.67210 | -74.17763 | 242 ft | 141 kts | 21° |
| 2026-04-20 02:38 | 40.68092 | -74.17212 | 39 ft | 139 kts | 21° |
| 2026-04-20 02:39 | 40.68812 | -74.16755 | 22 ft | 80 kts | 25° |
| 2026-04-20 02:39 | 40.69166 | -74.16591 | 28 ft | 35 kts | 4° |
| 2026-04-20 02:39 | 40.69375 | -74.16607 | 27 ft | 25 kts | 348° |
| 2026-04-20 02:39 | 40.69452 | -74.16764 | 26 ft | 24 kts | 295° |
| 2026-04-20 02:40 | 40.69499 | -74.16888 | 25 ft | 14 kts | 296° |
| 2026-04-20 02:40 | 40.69529 | -74.17031 | 22 ft | 18 kts | 260° |
| 2026-04-20 02:40 | 40.69533 | -74.17160 | 24 ft | 8 kts | 339° |
| 2026-04-20 02:40 | 40.69589 | -74.17172 | 25 ft | 7 kts | 350° |
| 2026-04-20 02:41 | 40.69600 | -74.17198 | 24 ft | 2 kts | 248° |